Time;durP1;ratioP1;P1;durP2;ratioP2;P2;SDS_P1;SDS_P2;PMS_P1;PMS_P2;Temp;Humidity;BMP_temperature;BMP_pressure;BME280_temperature;BME280_humidity;BME280_pressure;Samples;Min_cycle;Max_cycle;Signal;HPM_P1;HPM_P2
2022/02/24 00:02:20;;;;;;;11.30;3.03;;;8.10;99.90;;;;;;4994621;28;20408;-61
2022/02/24 00:04:47;;;;;;;14.68;1.90;;;8.20;99.90;;;;;;4986012;28;20057;-62
2022/02/24 00:07:16;;;;;;;9.90;1.88;;;8.20;99.90;;;;;;4997170;28;20057;-61
2022/02/24 00:09:43;;;;;;;10.98;1.75;;;8.30;99.90;;;;;;4995935;28;20081;-60
2022/02/24 00:12:10;;;;;;;12.20;2.20;;;8.30;99.90;;;;;;4995133;28;20161;-60
2022/02/24 00:14:37;;;;;;;15.88;2.10;;;8.30;99.90;;;;;;4992949;28;20116;-62
2022/02/24 00:17:04;;;;;;;16.77;2.92;;;8.30;99.90;;;;;;4994045;28;20054;-61
2022/02/24 00:19:31;;;;;;;7.95;1.70;;;8.30;99.90;;;;;;5000173;28;20045;-61
2022/02/24 00:21:58;;;;;;;10.35;2.10;;;8.30;99.90;;;;;;5003327;28;20137;-62
2022/02/24 00:24:24;;;;;;;8.88;2.50;;;8.30;99.90;;;;;;4990152;28;20586;-62
2022/02/24 00:26:51;;;;;;;11.05;1.52;;;8.30;99.90;;;;;;4983521;28;20073;-61
2022/02/24 00:29:18;;;;;;;9.13;1.52;;;8.40;99.90;;;;;;4991637;28;20050;-61
2022/02/24 00:31:45;;;;;;;9.00;1.92;;;8.30;99.90;;;;;;4973920;28;20076;-61
2022/02/24 00:34:12;;;;;;;6.53;1.38;;;8.30;99.90;;;;;;4993581;28;20046;-62
2022/02/24 00:36:38;;;;;;;11.30;2.85;;;8.30;99.90;;;;;;4991287;28;20126;-62
2022/02/24 00:39:05;;;;;;;5.20;1.20;;;8.30;99.90;;;;;;4996512;28;20046;-62
2022/02/24 00:41:32;;;;;;;9.25;1.27;;;8.30;99.90;;;;;;4989101;28;20125;-61
2022/02/24 00:43:59;;;;;;;14.55;1.73;;;8.30;99.90;;;;;;4998941;28;20160;-61
2022/02/24 00:46:25;;;;;;;9.30;1.60;;;8.30;99.90;;;;;;4991979;28;20420;-63
2022/02/24 00:48:52;;;;;;;6.80;2.80;;;8.30;99.90;;;;;;4995666;28;20114;-61
2022/02/24 00:51:19;;;;;;;9.45;1.85;;;8.30;99.90;;;;;;5006981;28;20088;-62
2022/02/24 00:53:46;;;;;;;7.22;2.08;;;8.30;99.90;;;;;;4995443;28;20141;-62
2022/02/24 00:56:13;;;;;;;10.18;1.30;;;8.30;99.90;;;;;;5006898;28;20057;-61
2022/02/24 00:58:40;;;;;;;9.80;1.40;;;8.30;99.90;;;;;;4994590;28;20081;-61
2022/02/24 01:01:07;;;;;;;16.48;1.73;;;8.40;99.90;;;;;;5007447;28;20541;-62
2022/02/24 01:03:34;;;;;;;5.95;1.40;;;8.30;99.90;;;;;;4978012;28;20133;-64
2022/02/24 01:06:01;;;;;;;9.45;1.38;;;8.40;99.90;;;;;;5007005;28;20054;-60
2022/02/24 01:08:27;;;;;;;11.02;2.38;;;8.30;99.90;;;;;;4997591;28;20074;-61
2022/02/24 01:10:54;;;;;;;12.88;2.90;;;8.30;99.90;;;;;;5004723;28;20505;-61
2022/02/24 01:13:21;;;;;;;11.25;2.25;;;8.30;99.90;;;;;;4999752;28;20096;-62
2022/02/24 01:15:48;;;;;;;11.57;2.03;;;8.30;99.90;;;;;;5002252;28;20070;-61
2022/02/24 01:18:15;;;;;;;9.88;2.25;;;8.30;99.90;;;;;;5005233;28;20053;-61
2022/02/24 01:20:42;;;;;;;7.43;1.77;;;8.30;99.90;;;;;;4998353;28;20137;-62
2022/02/24 01:23:09;;;;;;;6.70;1.33;;;8.20;99.90;;;;;;4994136;28;20042;-62
2022/02/24 01:25:36;;;;;;;8.65;1.40;;;8.30;99.90;;;;;;5000636;28;20089;-62
2022/02/24 01:28:02;;;;;;;15.40;1.65;;;8.30;99.90;;;;;;4992362;28;20070;-61
2022/02/24 01:30:29;;;;;;;7.90;1.40;;;8.30;99.90;;;;;;4969048;28;20132;-62
2022/02/24 01:32:56;;;;;;;13.10;1.67;;;8.20;99.90;;;;;;4992107;28;20085;-62
2022/02/24 01:35:24;;;;;;;16.73;1.83;;;8.20;99.90;;;;;;5002310;28;20051;-62
2022/02/24 01:37:50;;;;;;;9.48;2.15;;;8.20;99.90;;;;;;4991029;28;20566;-62
2022/02/24 01:40:17;;;;;;;9.85;1.30;;;8.30;99.90;;;;;;4998511;28;20132;-62
2022/02/24 01:42:44;;;;;;;6.95;1.73;;;8.30;99.90;;;;;;4993253;28;20138;-61
2022/02/24 01:45:11;;;;;;;10.55;1.50;;;8.30;99.90;;;;;;4997897;28;20054;-62
2022/02/24 01:47:38;;;;;;;10.48;1.75;;;8.30;99.90;;;;;;4995309;28;20082;-62
2022/02/24 01:50:05;;;;;;;9.02;1.30;;;8.30;99.90;;;;;;5002163;28;20702;-62
2022/02/24 01:52:32;;;;;;;17.10;2.17;;;8.30;99.90;;;;;;4991340;28;20077;-62
2022/02/24 01:54:59;;;;;;;12.73;1.77;;;8.30;99.90;;;;;;4980457;28;20129;-62
2022/02/24 01:57:25;;;;;;;8.43;3.03;;;8.40;99.90;;;;;;5007725;28;20087;-61
2022/02/24 01:59:52;;;;;;;8.93;1.27;;;8.40;99.90;;;;;;5002510;28;20146;-63
2022/02/24 02:02:19;;;;;;;8.32;1.73;;;8.40;99.90;;;;;;5005580;28;20042;-62
2022/02/24 02:04:46;;;;;;;8.88;2.28;;;8.50;99.90;;;;;;5004988;28;20481;-62
2022/02/24 02:07:13;;;;;;;4.68;1.40;;;8.50;99.90;;;;;;5003174;28;20057;-63
2022/02/24 02:09:40;;;;;;;6.40;1.33;;;8.50;99.90;;;;;;5007195;28;20137;-62
2022/02/24 02:12:07;;;;;;;8.07;1.52;;;8.50;99.90;;;;;;4999915;28;20080;-62
2022/02/24 02:14:36;;;;;;;8.57;1.40;;;8.50;99.90;;;;;;5006431;28;20145;-62
2022/02/24 02:17:03;;;;;;;4.93;1.23;;;8.50;99.90;;;;;;5001192;28;20046;-62
2022/02/24 02:19:30;;;;;;;11.90;1.52;;;8.50;99.90;;;;;;4645485;28;10000562;-62
2022/02/24 02:21:57;;;;;;;11.35;1.83;;;8.50;99.90;;;;;;5001116;28;20158;-61
2022/02/24 02:24:24;;;;;;;10.98;1.88;;;8.50;99.90;;;;;;4973146;28;20141;-62
2022/02/24 02:26:50;;;;;;;6.25;1.20;;;8.50;99.90;;;;;;4997399;28;20076;-62
2022/02/24 02:29:17;;;;;;;11.88;1.60;;;8.50;99.90;;;;;;5009876;28;20060;-62
2022/02/24 02:31:44;;;;;;;10.23;1.90;;;8.50;99.90;;;;;;4997055;28;20141;-61
2022/02/24 02:34:16;;;;;;;13.73;2.38;;;8.50;99.90;;;;;;5009710;28;20145;-62
2022/02/24 02:36:45;;;;;;;8.00;1.67;;;8.40;99.90;;;;;;4997103;28;20149;-62
2022/02/24 02:39:13;;;;;;;10.93;1.42;;;8.40;99.90;;;;;;4989840;28;20054;-63
2022/02/24 02:41:42;;;;;;;11.25;3.42;;;8.40;99.90;;;;;;4994272;28;20050;-63
2022/02/24 02:44:09;;;;;;;14.93;1.65;;;8.30;99.90;;;;;;4996362;28;20137;-61
2022/02/24 02:46:36;;;;;;;8.13;2.58;;;8.30;99.90;;;;;;4998703;28;20104;-62
2022/02/24 02:49:03;;;;;;;8.82;1.77;;;8.30;99.90;;;;;;4993089;28;20077;-62
2022/02/24 02:51:30;;;;;;;7.28;1.60;;;8.30;99.90;;;;;;4996092;28;20479;-62
2022/02/24 02:53:57;;;;;;;14.93;2.97;;;8.30;99.90;;;;;;4995376;28;20090;-61
2022/02/24 02:56:23;;;;;;;12.35;1.50;;;8.40;99.90;;;;;;4993772;28;20710;-62
2022/02/24 02:58:50;;;;;;;11.38;2.40;;;8.30;99.90;;;;;;4997551;28;20101;-61
2022/02/24 03:01:17;;;;;;;8.00;1.45;;;8.30;99.90;;;;;;4991222;28;20548;-61
2022/02/24 03:03:47;;;;;;;10.57;1.63;;;8.30;99.90;;;;;;4982284;28;20042;-62
2022/02/24 03:06:14;;;;;;;12.43;1.40;;;8.30;99.90;;;;;;4990784;28;20077;-62
2022/02/24 03:08:41;;;;;;;9.60;1.90;;;8.20;99.90;;;;;;5000777;28;20051;-61
2022/02/24 03:11:07;;;;;;;16.38;2.88;;;8.20;99.90;;;;;;4990607;28;20078;-62
2022/02/24 03:13:35;;;;;;;16.05;1.88;;;8.30;99.90;;;;;;5003900;28;20100;-63
2022/02/24 03:16:02;;;;;;;7.13;1.23;;;8.30;99.90;;;;;;5008606;28;20054;-62
2022/02/24 03:18:29;;;;;;;13.82;2.35;;;8.30;99.90;;;;;;5008540;28;20046;-62
2022/02/24 03:20:57;;;;;;;10.85;2.75;;;8.30;99.90;;;;;;5008761;28;20144;-61
2022/02/24 03:23:24;;;;;;;6.97;1.73;;;8.20;99.90;;;;;;5003072;28;20485;-62
2022/02/24 03:25:52;;;;;;;14.75;1.80;;;8.20;99.90;;;;;;4988955;28;20144;-62
2022/02/24 03:28:18;;;;;;;9.90;1.67;;;8.20;99.90;;;;;;4982997;28;20046;-63
2022/02/24 03:30:45;;;;;;;10.20;1.83;;;8.20;99.90;;;;;;4990081;28;20089;-61
2022/02/24 03:33:12;;;;;;;12.13;2.33;;;8.20;99.90;;;;;;4997671;28;20128;-61
2022/02/24 03:35:43;;;;;;;12.48;2.00;;;8.20;99.90;;;;;;4992610;28;20097;-61
2022/02/24 03:38:10;;;;;;;12.25;2.20;;;8.20;99.90;;;;;;4979384;28;20180;-61
2022/02/24 03:40:37;;;;;;;11.77;1.85;;;8.20;99.90;;;;;;4993334;28;20054;-61
2022/02/24 03:43:04;;;;;;;16.20;2.47;;;8.20;99.90;;;;;;4994122;28;20721;-61
2022/02/24 03:45:30;;;;;;;12.38;1.80;;;8.20;99.90;;;;;;5002854;28;20564;-61
2022/02/24 03:47:58;;;;;;;12.75;2.03;;;8.20;99.90;;;;;;5006723;28;20050;-61
2022/02/24 03:50:25;;;;;;;9.30;2.08;;;8.20;99.90;;;;;;5002076;28;20065;-61
2022/02/24 03:52:51;;;;;;;11.63;1.85;;;8.20;99.90;;;;;;5009345;28;20042;-61
2022/02/24 03:55:18;;;;;;;5.72;1.20;;;8.30;99.90;;;;;;5000855;28;20065;-61
2022/02/24 03:57:45;;;;;;;9.13;2.03;;;8.20;99.90;;;;;;5009668;28;20054;-62
2022/02/24 04:00:12;;;;;;;11.32;1.60;;;8.30;99.90;;;;;;5000137;28;20180;-62
2022/02/24 04:02:39;;;;;;;8.50;1.45;;;8.30;99.90;;;;;;5013669;28;20080;-62
2022/02/24 04:05:06;;;;;;;13.43;1.77;;;8.30;99.90;;;;;;5015249;28;20052;-62
2022/02/24 04:07:33;;;;;;;11.25;1.75;;;8.40;99.90;;;;;;5011214;28;20062;-63
2022/02/24 04:10:00;;;;;;;13.27;2.03;;;8.40;99.90;;;;;;5007219;28;20133;-61
2022/02/24 04:12:26;;;;;;;13.40;1.73;;;8.40;99.90;;;;;;5009247;28;20073;-61
2022/02/24 04:14:55;;;;;;;16.52;1.63;;;8.50;99.90;;;;;;4995890;28;20082;-61
2022/02/24 04:17:21;;;;;;;14.77;3.65;;;8.50;99.90;;;;;;4990817;28;20088;-61
2022/02/24 04:19:48;;;;;;;9.90;1.73;;;8.60;99.90;;;;;;4998309;28;20172;-62
2022/02/24 04:22:15;;;;;;;12.75;1.42;;;8.60;99.90;;;;;;5005291;28;20141;-61
2022/02/24 04:24:42;;;;;;;9.85;1.60;;;8.60;99.90;;;;;;4983561;28;20074;-61
2022/02/24 04:27:09;;;;;;;8.60;1.77;;;8.70;99.90;;;;;;5002796;28;20700;-61
2022/02/24 04:29:36;;;;;;;14.15;2.17;;;8.60;99.90;;;;;;5003027;28;20420;-61
2022/02/24 04:32:03;;;;;;;15.55;3.97;;;8.70;99.90;;;;;;5000995;28;20050;-61
2022/02/24 04:34:30;;;;;;;7.63;1.45;;;8.70;99.90;;;;;;5006056;28;20041;-62
2022/02/24 04:36:56;;;;;;;19.08;2.35;;;8.70;99.90;;;;;;4999601;28;20420;-62
2022/02/24 04:39:23;;;;;;;11.55;2.05;;;8.70;99.90;;;;;;5008696;28;20072;-62
2022/02/24 04:41:50;;;;;;;8.98;1.42;;;8.70;99.90;;;;;;5009227;28;20049;-62
2022/02/24 04:44:17;;;;;;;12.75;2.08;;;8.70;99.90;;;;;;5007348;28;20054;-62
2022/02/24 04:46:44;;;;;;;14.63;2.08;;;8.70;99.90;;;;;;4998453;28;20072;-62
2022/02/24 04:49:10;;;;;;;9.70;1.73;;;8.80;99.90;;;;;;5008877;28;20105;-61
2022/02/24 04:51:37;;;;;;;21.83;3.05;;;8.80;99.90;;;;;;5002323;28;20046;-62
2022/02/24 04:54:04;;;;;;;10.15;1.75;;;8.80;99.90;;;;;;4975356;28;20054;-62
2022/02/24 04:56:31;;;;;;;10.73;2.20;;;8.70;99.90;;;;;;5004882;28;20046;-61
2022/02/24 04:58:58;;;;;;;7.82;1.45;;;8.80;99.90;;;;;;4994683;28;20082;-62
2022/02/24 05:01:26;;;;;;;14.40;2.50;;;8.80;99.90;;;;;;5006427;28;20049;-61
2022/02/24 05:03:53;;;;;;;9.32;1.50;;;8.80;99.90;;;;;;4995701;28;20050;-61
2022/02/24 05:06:20;;;;;;;11.07;1.83;;;8.80;99.90;;;;;;5001282;28;20045;-62
2022/02/24 05:08:47;;;;;;;8.73;2.33;;;8.80;99.90;;;;;;4994757;28;20053;-62
2022/02/24 05:11:13;;;;;;;10.95;1.67;;;8.80;99.90;;;;;;4998498;28;20046;-62
2022/02/24 05:13:40;;;;;;;12.57;2.10;;;8.80;99.90;;;;;;5007792;28;20049;-62
2022/02/24 05:16:07;;;;;;;9.88;1.55;;;8.80;99.90;;;;;;5006129;28;20050;-62
2022/02/24 05:18:34;;;;;;;13.32;2.05;;;8.80;99.90;;;;;;4986518;28;20073;-62
2022/02/24 05:21:01;;;;;;;8.80;2.03;;;8.80;99.90;;;;;;5008125;28;20497;-61
2022/02/24 05:23:28;;;;;;;8.57;1.17;;;8.80;99.90;;;;;;5001686;28;20054;-62
2022/02/24 05:25:54;;;;;;;19.08;2.28;;;8.80;99.90;;;;;;4992434;28;20186;-62
2022/02/24 05:28:24;;;;;;;14.00;1.65;;;8.80;99.90;;;;;;5000135;28;20409;-62
2022/02/24 05:30:58;;;;;;;9.52;2.22;;;8.80;99.90;;;;;;5009374;28;20061;-62
2022/02/24 05:33:29;;;;;;;8.18;1.50;;;8.80;99.90;;;;;;5000002;28;20125;-62
2022/02/24 05:35:56;;;;;;;6.10;1.40;;;8.70;99.90;;;;;;5009114;28;20056;-62
2022/02/24 05:38:23;;;;;;;19.02;2.83;;;8.60;99.90;;;;;;5002407;28;20042;-61
2022/02/24 05:40:50;;;;;;;14.18;2.65;;;8.60;99.90;;;;;;4991198;28;20077;-61
2022/02/24 05:43:17;;;;;;;9.02;1.33;;;8.50;99.90;;;;;;5002534;28;20057;-61
2022/02/24 05:45:44;;;;;;;6.05;1.38;;;8.50;99.90;;;;;;5010865;28;20058;-61
2022/02/24 05:48:11;;;;;;;11.50;1.38;;;8.40;99.90;;;;;;4997772;28;20051;-61
2022/02/24 05:50:39;;;;;;;14.45;1.90;;;8.40;99.90;;;;;;5010621;28;20061;-61
2022/02/24 05:53:05;;;;;;;18.98;2.10;;;8.40;99.90;;;;;;4999073;28;20069;-62
2022/02/24 05:55:35;;;;;;;10.20;2.28;;;8.40;99.90;;;;;;4991958;28;20504;-61
2022/02/24 05:58:02;;;;;;;10.32;1.85;;;8.40;99.90;;;;;;4983636;28;20046;-61
2022/02/24 06:00:29;;;;;;;12.05;1.67;;;8.40;99.90;;;;;;5007322;28;20085;-61
2022/02/24 06:02:55;;;;;;;13.18;2.05;;;8.30;99.90;;;;;;4987957;28;20305;-62
2022/02/24 06:05:22;;;;;;;12.77;1.85;;;8.30;99.90;;;;;;4996103;28;20662;-62
2022/02/24 06:07:49;;;;;;;17.15;3.15;;;8.30;99.90;;;;;;4994588;28;20536;-62
2022/02/24 06:10:16;;;;;;;8.70;2.03;;;8.30;99.90;;;;;;4998516;28;20117;-62
2022/02/24 06:12:43;;;;;;;16.65;2.38;;;8.20;99.90;;;;;;4992459;28;20101;-62
2022/02/24 06:15:10;;;;;;;13.27;3.13;;;8.20;99.90;;;;;;5000101;28;20080;-62
2022/02/24 06:17:37;;;;;;;10.75;1.58;;;8.20;99.90;;;;;;4991833;28;20077;-61
2022/02/24 06:20:04;;;;;;;21.42;1.88;;;8.20;99.90;;;;;;5004767;28;20085;-61
2022/02/24 06:22:31;;;;;;;10.65;2.10;;;8.10;99.90;;;;;;5008397;28;20483;-62
2022/02/24 06:24:58;;;;;;;11.35;2.08;;;8.10;99.90;;;;;;4998645;28;20046;-62
2022/02/24 06:27:24;;;;;;;18.25;3.33;;;8.10;99.90;;;;;;5010084;28;20100;-64
2022/02/24 06:29:54;;;;;;;14.10;2.03;;;8.20;99.90;;;;;;4996856;28;20138;-62
2022/02/24 06:32:20;;;;;;;14.23;1.90;;;8.10;99.90;;;;;;4991524;28;20050;-64
2022/02/24 06:34:48;;;;;;;11.15;1.48;;;8.10;99.90;;;;;;4984913;28;20062;-63
2022/02/24 06:37:15;;;;;;;9.63;3.15;;;8.10;99.90;;;;;;4990100;28;20179;-60
2022/02/24 06:39:42;;;;;;;13.05;3.72;;;8.10;99.90;;;;;;5001466;28;20255;-62
2022/02/24 06:42:09;;;;;;;6.70;1.80;;;8.10;99.90;;;;;;4990709;28;20054;-63
2022/02/24 06:44:36;;;;;;;14.05;1.80;;;8.10;99.90;;;;;;4998973;28;20085;-62
2022/02/24 06:47:03;;;;;;;15.95;2.58;;;8.10;99.90;;;;;;4997642;28;20599;-62
2022/02/24 06:49:30;;;;;;;18.27;2.53;;;8.20;99.90;;;;;;5002520;28;20477;-63
2022/02/24 06:51:58;;;;;;;30.42;4.78;;;8.20;99.90;;;;;;5003662;28;20058;-63
2022/02/24 06:54:25;;;;;;;12.80;2.28;;;8.30;99.90;;;;;;5004161;28;20042;-63
2022/02/24 06:56:52;;;;;;;19.15;2.40;;;8.30;99.90;;;;;;5002131;28;20049;-63
2022/02/24 06:59:19;;;;;;;12.63;2.90;;;8.40;99.90;;;;;;5006110;28;20474;-63
2022/02/24 07:01:46;;;;;;;10.43;2.13;;;8.40;99.90;;;;;;4995083;28;20509;-63
2022/02/24 07:04:13;;;;;;;19.20;2.70;;;8.40;99.90;;;;;;4991741;28;20046;-62
2022/02/24 07:06:40;;;;;;;12.77;2.00;;;8.40;99.90;;;;;;4999848;28;20054;-63
2022/02/24 07:09:06;;;;;;;17.10;2.80;;;8.40;99.90;;;;;;4996329;28;20100;-64
2022/02/24 07:11:33;;;;;;;22.17;2.97;;;8.50;99.90;;;;;;4997861;28;20525;-63
2022/02/24 07:14:03;;;;;;;14.57;2.75;;;8.50;99.90;;;;;;5004165;28;20095;-62
2022/02/24 07:16:32;;;;;;;14.73;2.63;;;8.50;99.90;;;;;;4996299;28;20053;-63
2022/02/24 07:19:00;;;;;;;6.55;0.80;;;8.20;99.90;;;;;;5002463;28;20043;-63
2022/02/24 07:21:26;;;;;;;4.57;0.90;;;7.60;99.90;;;;;;4979450;28;20844;-64
2022/02/24 07:23:53;;;;;;;14.00;1.30;;;7.30;99.90;;;;;;4997783;28;20077;-64
2022/02/24 07:26:20;;;;;;;5.05;0.63;;;7.10;99.90;;;;;;5000781;28;20136;-64
2022/02/24 07:28:47;;;;;;;1.50;0.80;;;6.90;99.90;;;;;;4992046;28;20045;-64
2022/02/24 07:31:14;;;;;;;2.40;0.63;;;6.90;99.90;;;;;;4996565;28;20046;-63
2022/02/24 07:33:41;;;;;;;3.65;0.80;;;6.80;99.90;;;;;;4981939;28;20050;-63
2022/02/24 07:36:11;;;;;;;2.83;0.70;;;6.60;99.90;;;;;;5000587;28;20057;-64
2022/02/24 07:38:38;;;;;;;3.25;0.98;;;6.50;99.90;;;;;;4986219;28;20085;-61
2022/02/24 07:41:05;;;;;;;3.05;0.98;;;6.40;99.90;;;;;;4998934;28;20085;-63
2022/02/24 07:43:32;;;;;;;5.30;1.27;;;6.50;99.90;;;;;;4999466;28;20050;-63
2022/02/24 07:45:59;;;;;;;4.55;0.93;;;6.40;99.90;;;;;;5001032;28;20606;-62
2022/02/24 07:48:27;;;;;;;6.63;1.02;;;6.50;99.90;;;;;;4984635;28;20045;-63
2022/02/24 07:50:55;;;;;;;2.72;0.93;;;6.40;99.90;;;;;;4996335;28;20046;-62
2022/02/24 07:53:22;;;;;;;5.07;0.90;;;6.50;99.90;;;;;;4999483;28;20495;-61
2022/02/24 07:55:49;;;;;;;5.85;0.95;;;6.50;99.90;;;;;;4997000;28;20058;-63
2022/02/24 07:58:16;;;;;;;7.03;2.00;;;6.40;99.90;;;;;;4998020;28;20042;-64
2022/02/24 08:00:45;;;;;;;1.83;0.68;;;6.40;99.90;;;;;;4996593;28;20077;-63
2022/02/24 08:03:12;;;;;;;3.92;1.10;;;6.40;99.90;;;;;;4998280;28;20046;-62
2022/02/24 08:05:39;;;;;;;2.88;1.48;;;6.40;99.90;;;;;;4997519;28;20046;-62
2022/02/24 08:08:06;;;;;;;3.60;1.00;;;6.40;99.90;;;;;;4994266;28;20112;-62
2022/02/24 08:10:33;;;;;;;4.38;0.90;;;6.40;99.90;;;;;;4998872;28;20074;-62
2022/02/24 08:13:01;;;;;;;7.50;2.42;;;6.40;99.90;;;;;;5000787;28;20054;-62
2022/02/24 08:15:28;;;;;;;6.20;3.35;;;6.50;99.90;;;;;;4998954;28;20109;-63
2022/02/24 08:17:55;;;;;;;2.20;0.80;;;6.50;99.90;;;;;;5001773;28;20046;-61
2022/02/24 08:20:22;;;;;;;5.15;1.08;;;6.50;99.90;;;;;;5007142;28;20073;-62
2022/02/24 08:22:49;;;;;;;5.35;1.05;;;6.40;99.90;;;;;;5002939;28;20046;-61
2022/02/24 08:25:17;;;;;;;4.47;0.75;;;6.50;99.90;;;;;;5007728;28;20504;-62
2022/02/24 08:27:44;;;;;;;5.13;0.55;;;6.50;99.90;;;;;;5002283;28;20081;-61
2022/02/24 08:30:12;;;;;;;6.38;0.88;;;6.60;99.90;;;;;;4992732;28;20073;-63
2022/02/24 08:32:39;;;;;;;1.98;0.70;;;6.60;99.90;;;;;;4992250;28;20042;-62
2022/02/24 08:35:07;;;;;;;3.97;0.70;;;6.60;99.90;;;;;;4995371;28;20078;-62
2022/02/24 08:37:34;;;;;;;5.35;0.68;;;6.60;99.90;;;;;;4989944;28;20054;-63
2022/02/24 08:40:03;;;;;;;1.20;0.60;;;6.60;99.90;;;;;;4996960;28;20105;-62
2022/02/24 08:42:29;;;;;;;2.72;0.65;;;6.70;99.90;;;;;;4973899;28;20046;-63
2022/02/24 08:44:56;;;;;;;4.15;0.70;;;6.70;99.90;;;;;;4996066;28;20046;-63
2022/02/24 08:47:36;;;;;;;3.35;0.80;;;6.70;99.90;;;;;;5005597;28;20136;-63
2022/02/24 08:50:03;;;;;;;2.63;0.70;;;6.80;99.90;;;;;;4994535;28;20046;-63
2022/02/24 08:52:50;;;;;;;2.15;1.10;;;6.80;99.90;;;;;;5004674;28;20046;-63
2022/02/24 08:55:16;;;;;;;4.63;1.05;;;6.80;99.90;;;;;;4995886;28;20073;-63
2022/02/24 08:57:43;;;;;;;2.50;0.60;;;6.80;99.90;;;;;;5004934;28;20128;-63
2022/02/24 09:00:10;;;;;;;3.28;0.70;;;6.70;99.90;;;;;;4996806;28;20042;-63
2022/02/24 09:02:37;;;;;;;3.35;0.90;;;6.70;99.90;;;;;;4986403;28;20050;-62
2022/02/24 09:05:05;;;;;;;2.35;0.80;;;6.80;99.90;;;;;;4998985;28;20077;-63
2022/02/24 09:07:33;;;;;;;8.75;1.60;;;6.80;99.90;;;;;;4987128;28;20058;-62
2022/02/24 09:10:21;;;;;;;2.90;1.45;;;6.80;99.90;;;;;;4995638;28;20046;-63
2022/02/24 09:12:48;;;;;;;3.80;0.70;;;6.80;99.90;;;;;;5007232;28;20046;-64
2022/02/24 09:15:15;;;;;;;1.42;0.80;;;6.80;99.90;;;;;;4994717;28;20050;-63
2022/02/24 09:17:42;;;;;;;6.32;0.75;;;6.50;99.90;;;;;;5008010;28;20069;-63
2022/02/24 09:20:09;;;;;;;0.55;0.38;;;6.00;99.90;;;;;;4995037;28;20058;-63
2022/02/24 09:22:36;;;;;;;1.90;0.70;;;5.60;99.90;;;;;;4990796;28;20096;-64
2022/02/24 09:25:03;;;;;;;1.05;0.55;;;5.50;99.90;;;;;;4997148;28;20409;-63
2022/02/24 09:27:30;;;;;;;4.15;0.63;;;5.50;99.90;;;;;;5005830;28;20472;-63
2022/02/24 09:29:58;;;;;;;5.28;0.88;;;5.40;99.90;;;;;;4999447;28;20074;-63
2022/02/24 09:32:26;;;;;;;1.35;0.50;;;5.40;99.90;;;;;;4986434;28;20096;-64
2022/02/24 09:34:53;;;;;;;3.42;1.30;;;5.40;99.90;;;;;;5003559;28;20042;-65
2022/02/24 09:37:20;;;;;;;4.47;0.60;;;5.40;99.90;;;;;;4976993;28;20109;-63
2022/02/24 09:39:47;;;;;;;3.70;0.65;;;5.40;99.90;;;;;;4995204;28;20092;-64
2022/02/24 09:42:14;;;;;;;1.70;0.68;;;5.40;99.90;;;;;;5004521;28;20390;-63
2022/02/24 09:44:41;;;;;;;3.20;0.70;;;5.40;99.90;;;;;;5006343;28;20038;-63
2022/02/24 09:47:09;;;;;;;0.60;0.60;;;5.30;99.90;;;;;;5001937;28;20160;-64
2022/02/24 09:49:35;;;;;;;0.90;0.50;;;5.30;99.90;;;;;;4992955;28;20574;-63
2022/02/24 09:52:03;;;;;;;1.67;0.65;;;5.20;99.90;;;;;;4984747;28;20489;-65
2022/02/24 09:54:30;;;;;;;0.38;0.38;;;5.20;99.90;;;;;;4992293;28;20078;-64
2022/02/24 09:56:57;;;;;;;1.45;0.40;;;5.10;99.90;;;;;;4984803;28;20093;-63
2022/02/24 09:59:24;;;;;;;2.47;0.63;;;5.10;99.90;;;;;;4974065;28;20109;-65
2022/02/24 10:01:51;;;;;;;0.55;0.40;;;5.00;99.90;;;;;;5003211;28;20128;-64
2022/02/24 10:04:20;;;;;;;2.53;0.55;;;4.80;99.90;;;;;;4991281;28;20050;-64
2022/02/24 10:06:48;;;;;;;2.72;0.57;;;4.70;99.90;;;;;;5002992;28;20096;-62
2022/02/24 10:09:31;;;;;;;3.88;0.60;;;4.70;99.90;;;;;;4973754;28;20216;-63
2022/02/24 10:12:08;;;;;;;3.65;0.60;;;4.70;99.90;;;;;;5002311;28;20054;-64
2022/02/24 10:14:36;;;;;;;3.92;0.40;;;4.70;99.90;;;;;;5005073;28;20120;-66
2022/02/24 10:17:04;;;;;;;4.97;0.70;;;4.70;99.90;;;;;;5002801;28;20108;-64
2022/02/24 10:19:37;;;;;;;8.45;0.68;;;4.70;99.90;;;;;;5010854;28;20497;-64
2022/02/24 10:22:19;;;;;;;4.28;0.90;;;4.70;99.90;;;;;;5005260;28;20084;-64
2022/02/24 10:24:58;;;;;;;0.52;0.40;;;4.70;99.90;;;;;;5010418;28;20413;-62
2022/02/24 10:27:26;;;;;;;0.52;0.50;;;4.70;99.90;;;;;;5003001;28;20636;-65
2022/02/24 10:30:01;;;;;;;2.15;0.60;;;4.80;99.90;;;;;;4990757;28;20050;-64
2022/02/24 10:32:49;;;;;;;1.60;0.55;;;4.80;99.90;;;;;;5002182;28;20104;-64
2022/02/24 10:35:25;;;;;;;4.00;0.60;;;4.90;99.90;;;;;;4990456;28;20046;-64
2022/02/24 10:38:05;;;;;;;2.53;0.45;;;4.90;99.90;;;;;;5002567;28;20132;-64
2022/02/24 10:40:39;;;;;;;1.10;0.60;;;5.00;99.90;;;;;;4991095;28;20065;-64
2022/02/24 10:43:26;;;;;;;3.15;0.50;;;5.10;99.90;;;;;;5002031;28;20123;-63
2022/02/24 10:46:06;;;;;;;1.98;0.40;;;5.10;99.90;;;;;;4990404;28;20058;-63
2022/02/24 10:48:47;;;;;;;2.40;0.60;;;5.20;99.90;;;;;;4997668;28;20049;-63
2022/02/24 10:51:19;;;;;;;6.60;0.70;;;5.30;99.90;;;;;;5009583;28;20054;-63
2022/02/24 10:53:45;;;;;;;4.80;0.70;;;5.40;99.90;;;;;;4981698;28;20034;-64
2022/02/24 10:56:15;;;;;;;4.55;0.77;;;5.50;99.90;;;;;;4992450;28;20057;-63
2022/02/24 10:58:42;;;;;;;5.43;1.17;;;5.50;99.90;;;;;;4996977;28;20124;-63
2022/02/24 11:01:17;;;;;;;7.30;2.42;;;5.60;99.90;;;;;;5009568;28;20046;-63
2022/02/24 11:03:51;;;;;;;0.90;0.35;;;5.60;99.90;;;;;;4996911;28;20051;-64
2022/02/24 11:06:20;;;;;;;4.85;0.80;;;5.60;99.90;;;;;;5009828;28;20414;-63
2022/02/24 11:08:48;;;;;;;1.15;0.52;;;5.60;99.90;;;;;;4997217;28;20046;-63
2022/02/24 11:11:24;;;;;;;0.30;0.30;;;5.70;99.90;;;;;;5009856;28;20050;-64
2022/02/24 11:13:51;;;;;;;2.45;0.60;;;5.80;99.90;;;;;;5004332;28;20042;-64
2022/02/24 11:16:19;;;;;;;2.80;1.33;;;5.90;99.90;;;;;;4990328;28;20054;-63
2022/02/24 11:18:46;;;;;;;2.47;0.95;;;5.90;99.90;;;;;;4999374;28;20132;-65
2022/02/24 11:21:14;;;;;;;1.73;0.60;;;6.00;99.90;;;;;;4992018;28;20445;-63
2022/02/24 11:23:42;;;;;;;1.70;0.90;;;6.00;99.90;;;;;;4997000;28;20046;-63
2022/02/24 11:26:21;;;;;;;3.05;0.70;;;6.10;99.90;;;;;;4993848;28;20077;-65
2022/02/24 11:29:15;;;;;;;3.80;1.00;;;6.20;99.90;;;;;;4996655;28;20058;-65
2022/02/24 11:31:45;;;;;;;4.47;0.68;;;6.10;99.90;;;;;;4991195;28;20054;-63
2022/02/24 11:34:12;;;;;;;3.60;0.75;;;6.20;99.90;;;;;;4997708;28;20096;-65
2022/02/24 11:36:46;;;;;;;2.30;0.90;;;6.20;99.90;;;;;;4992805;28;20085;-65
2022/02/24 11:39:16;;;;;;;3.85;1.02;;;6.30;99.90;;;;;;4996512;28;20065;-65
2022/02/24 11:41:46;;;;;;;2.05;0.88;;;6.30;99.90;;;;;;4993917;28;20128;-65
2022/02/24 11:44:38;;;;;;;2.53;0.80;;;6.40;99.90;;;;;;5003205;28;20096;-63
2022/02/24 11:47:09;;;;;;;3.75;1.60;;;6.50;99.90;;;;;;4991836;28;20097;-64
2022/02/24 11:49:58;;;;;;;6.20;0.90;;;6.60;99.90;;;;;;4997164;28;20120;-68
2022/02/24 11:52:31;;;;;;;1.65;0.85;;;6.60;99.90;;;;;;4990606;28;20054;-64
2022/02/24 11:54:59;;;;;;;1.65;0.82;;;6.70;99.90;;;;;;4992788;28;20054;-64
2022/02/24 11:57:35;;;;;;;3.97;1.27;;;6.80;99.90;;;;;;5006614;28;20508;-64
2022/02/24 12:00:11;;;;;;;3.08;0.75;;;6.80;99.70;;;;;;4999324;28;20058;-64
2022/02/24 12:02:42;;;;;;;2.88;0.80;;;6.90;98.00;;;;;;5006472;28;20050;-64
2022/02/24 12:05:22;;;;;;;3.85;1.15;;;6.90;97.20;;;;;;4999935;28;20042;-63
2022/02/24 12:08:12;;;;;;;5.15;0.90;;;6.80;97.50;;;;;;5006026;28;20076;-63
2022/02/24 12:10:49;;;;;;;4.32;0.98;;;6.80;96.20;;;;;;4997687;28;20050;-63
2022/02/24 12:13:23;;;;;;;2.75;0.90;;;7.00;96.30;;;;;;5006070;28;20046;-62
2022/02/24 12:16:15;;;;;;;8.23;0.98;;;7.10;95.80;;;;;;5003731;28;20632;-63
2022/02/24 12:18:43;;;;;;;3.08;1.02;;;7.30;96.80;;;;;;4988872;28;20054;-64
2022/02/24 12:21:33;;;;;;;4.75;0.98;;;7.50;96.80;;;;;;5000369;28;20042;-64
2022/02/24 12:24:01;;;;;;;4.30;0.73;;;7.60;95.90;;;;;;4988683;28;20054;-63
2022/02/24 12:26:47;;;;;;;1.63;0.88;;;7.60;95.10;;;;;;5000653;28;20098;-62
2022/02/24 12:29:32;;;;;;;7.03;1.13;;;7.70;94.70;;;;;;4988639;28;20090;-62
2022/02/24 12:31:59;;;;;;;;;;;7.70;93.90;;;;;;5000839;28;20489;-63
2022/02/24 12:34:26;;;;;;;7.78;2.13;;;7.70;94.10;;;;;;4988900;28;19921;-64
2022/02/24 12:37:06;;;;;;;4.78;1.23;;;7.70;96.90;;;;;;5000476;28;20096;-63
2022/02/24 12:39:34;;;;;;;2.70;0.88;;;7.90;95.40;;;;;;4989080;28;20140;-64
2022/02/24 12:42:08;;;;;;;2.53;0.77;;;7.80;93.90;;;;;;5001846;28;20054;-64
2022/02/24 12:44:35;;;;;;;2.38;0.80;;;7.80;93.50;;;;;;5008654;28;20119;-65
2022/02/24 12:47:03;;;;;;;8.00;2.67;;;7.70;92.50;;;;;;5001587;28;20050;-63
2022/02/24 12:49:43;;;;;;;4.78;0.60;;;7.60;93.80;;;;;;4988933;28;20050;-65
2022/02/24 12:52:15;;;;;;;7.90;0.98;;;7.50;91.70;;;;;;4999698;28;20097;-63
2022/02/24 12:54:42;;;;;;;3.63;1.33;;;7.50;92.50;;;;;;4988694;28;20050;-63
2022/02/24 12:57:09;;;;;;;6.30;1.20;;;7.50;92.60;;;;;;4991876;28;20090;-62
2022/02/24 12:59:36;;;;;;;2.10;0.90;;;7.50;94.10;;;;;;5006527;28;20058;-63
2022/02/24 13:02:07;;;;;;;5.88;1.08;;;7.60;95.20;;;;;;5002801;28;20046;-63